createdAt,value
2018-09-19T00:02:59.751Z,5.70
2018-09-19T00:05:29.344Z,6.57
2018-09-19T00:08:04.517Z,5.73
2018-09-19T00:10:42.736Z,5.50
2018-09-19T00:13:16.933Z,5.60
2018-09-19T00:15:45.661Z,5.97
2018-09-19T00:18:20.217Z,6.20
2018-09-19T00:20:49.250Z,5.83
2018-09-19T00:23:21.585Z,6.00
2018-09-19T00:26:04.305Z,6.70
2018-09-19T00:28:38.543Z,5.40
2018-09-19T00:31:13.343Z,5.87
2018-09-19T00:33:47.898Z,6.00
2018-09-19T00:36:24.333Z,6.27
2018-09-19T00:38:54.783Z,6.17
2018-09-19T00:41:24.473Z,6.10
2018-09-19T00:43:54.921Z,5.80
2018-09-19T00:46:24.535Z,5.90
2018-09-19T00:48:55.063Z,5.83
2018-09-19T00:51:37.552Z,6.07
2018-09-19T00:54:05.947Z,5.70
2018-09-19T00:56:44.444Z,4.90
2018-09-19T00:59:12.809Z,5.70
2018-09-19T01:01:51.676Z,5.27
2018-09-19T01:04:22.216Z,5.57
2018-09-19T01:06:50.910Z,5.53
2018-09-19T01:09:30.338Z,5.50
2018-09-19T01:12:00.022Z,5.70
2018-09-19T01:14:29.544Z,5.07
2018-09-19T01:16:58.011Z,5.80
2018-09-19T01:19:33.055Z,5.97
2018-09-19T01:22:02.744Z,5.80
2018-09-19T01:24:31.342Z,5.70
2018-09-19T01:27:03.193Z,5.73
2018-09-19T01:29:32.799Z,5.50
2018-09-19T01:32:01.415Z,6.17
2018-09-19T01:34:29.870Z,6.03
2018-09-19T01:36:58.572Z,5.83
2018-09-19T01:39:27.130Z,6.07
2018-09-19T01:41:56.734Z,5.30
2018-09-19T01:44:25.148Z,5.87
2018-09-19T01:46:54.801Z,6.30
2018-09-19T01:49:23.516Z,6.10
2018-09-19T01:51:58.785Z,5.63
2018-09-19T01:54:27.312Z,5.87
2018-09-19T01:56:56.056Z,6.20
2018-09-19T01:59:25.731Z,6.00
2018-09-19T02:01:54.330Z,5.60
2018-09-19T02:04:23.948Z,6.20
2018-09-19T02:06:55.666Z,6.20
2018-09-19T02:09:31.676Z,6.47
2018-09-19T02:12:01.380Z,6.47
2018-09-19T02:14:30.931Z,6.40
2018-09-19T02:17:10.109Z,6.20
2018-09-19T02:20:01.544Z,6.33
2018-09-19T02:22:38.516Z,7.20
2018-09-19T02:25:08.076Z,6.37
2018-09-19T02:27:37.703Z,6.37
2018-09-19T02:30:10.075Z,6.50
2018-09-19T02:32:44.863Z,6.10
2018-09-19T02:35:17.275Z,6.30
2018-09-19T02:38:04.688Z,6.20
2018-09-19T02:40:35.193Z,7.67
2018-09-19T02:43:14.373Z,6.50
2018-09-19T02:45:51.317Z,6.40
2018-09-19T02:48:24.291Z,6.60
2018-09-19T02:50:53.965Z,6.67
2018-09-19T02:53:22.562Z,7.20
2018-09-19T02:55:50.965Z,7.47
2018-09-19T02:58:20.617Z,8.10
2018-09-19T03:00:51.097Z,7.73
2018-09-19T03:03:23.817Z,8.50
2018-09-19T03:05:53.470Z,7.97
2018-09-19T03:08:23.961Z,8.37
2018-09-19T03:10:52.601Z,8.53
2018-09-19T03:13:21.021Z,8.63
2018-09-19T03:15:49.954Z,7.97
2018-09-19T03:18:20.555Z,9.30
2018-09-19T03:20:49.239Z,9.20
2018-09-19T03:23:17.925Z,9.50
2018-09-19T03:25:46.551Z,9.30
2018-09-19T03:28:14.955Z,8.90
2018-09-19T03:30:44.615Z,9.00
2018-09-19T03:33:13.265Z,9.37
2018-09-19T03:35:41.741Z,9.20
2018-09-19T03:38:11.268Z,9.10
2018-09-19T03:40:44.075Z,9.10
2018-09-19T03:43:12.660Z,9.40
2018-09-19T03:45:41.315Z,9.40
2018-09-19T03:48:16.780Z,9.30
2018-09-19T03:50:46.390Z,8.80
2018-09-19T03:53:18.765Z,9.00
2018-09-19T03:55:48.370Z,8.37
2018-09-19T03:58:20.180Z,8.60
2018-09-19T04:01:04.770Z,8.30
2018-09-19T04:03:34.464Z,7.97
2018-09-19T04:06:04.902Z,8.07
2018-09-19T04:08:39.121Z,8.70
2018-09-19T04:11:07.591Z,8.67
2018-09-19T04:13:37.168Z,8.03
2018-09-19T04:16:05.872Z,8.27
2018-09-19T04:18:34.534Z,8.57
2018-09-19T04:21:12.710Z,8.37
2018-09-19T04:23:42.311Z,8.87
2018-09-19T04:26:16.577Z,8.60
2018-09-19T04:28:47.136Z,7.73
2018-09-19T04:31:17.709Z,8.27
2018-09-19T04:33:46.474Z,7.80
2018-09-19T04:36:15.049Z,8.07
2018-09-19T04:38:44.788Z,8.10
2018-09-19T04:41:14.610Z,8.73
2018-09-19T04:43:44.205Z,8.90
2018-09-19T04:46:13.790Z,8.57
2018-09-19T04:48:42.377Z,9.03
2018-09-19T04:51:10.857Z,9.37
2018-09-19T04:53:39.623Z,9.07
2018-09-19T04:56:08.263Z,9.43
2018-09-19T04:58:36.918Z,9.97
2018-09-19T05:01:07.565Z,9.07
2018-09-19T05:03:38.282Z,9.47
2018-09-19T05:06:08.016Z,9.57
2018-09-19T05:08:36.567Z,9.30
2018-09-19T05:11:05.219Z,9.20
2018-09-19T05:13:38.538Z,9.43
2018-09-19T05:16:07.238Z,8.60
2018-09-19T05:18:36.813Z,9.33
2018-09-19T05:21:05.631Z,9.13
2018-09-19T05:23:34.287Z,9.33
2018-09-19T05:26:08.467Z,8.40
2018-09-19T05:28:42.733Z,9.73
2018-09-19T05:31:11.351Z,9.90
2018-09-19T05:33:40.057Z,9.23
2018-09-19T05:36:14.338Z,10.00
2018-09-19T05:38:43.037Z,9.63
2018-09-19T05:41:11.633Z,9.83
2018-09-19T05:43:45.633Z,9.27
2018-09-19T05:46:15.254Z,9.47
2018-09-19T05:48:45.779Z,9.60
2018-09-19T05:51:14.409Z,9.77
2018-09-19T05:53:47.296Z,8.50
2018-09-19T05:56:16.101Z,9.33
2018-09-19T05:58:44.700Z,9.90
2018-09-19T06:01:19.216Z,9.10
2018-09-19T06:03:48.003Z,10.03
2018-09-19T06:06:22.129Z,9.73
2018-09-19T06:08:51.780Z,9.37
2018-09-19T06:11:25.087Z,10.10
2018-09-19T06:13:53.827Z,9.70
2018-09-19T06:16:22.456Z,10.87
2018-09-19T06:18:51.492Z,9.80
2018-09-19T06:21:27.487Z,10.00
2018-09-19T06:23:57.519Z,11.17
2018-09-19T06:26:26.150Z,10.27
2018-09-19T06:28:54.809Z,9.73
2018-09-19T06:31:29.296Z,10.40
2018-09-19T06:34:04.175Z,10.20
2018-09-19T06:36:33.704Z,10.10
2018-09-19T06:39:04.051Z,8.97
2018-09-19T06:41:32.654Z,9.07
2018-09-19T06:44:02.269Z,9.67
2018-09-19T06:46:30.949Z,9.37
2018-09-19T06:49:00.555Z,9.20
2018-09-19T06:51:29.164Z,8.67
2018-09-19T06:53:58.849Z,8.93
2018-09-19T06:56:27.606Z,9.07
2018-09-19T06:58:56.174Z,8.97
2018-09-19T07:01:28.310Z,8.07
2018-09-19T07:04:03.371Z,9.43
2018-09-19T07:06:31.964Z,8.23
2018-09-19T07:09:07.334Z,8.20
2018-09-19T07:11:36.844Z,7.90
2018-09-19T07:14:11.097Z,8.43
2018-09-19T07:16:39.658Z,7.80
2018-09-19T07:19:13.300Z,7.87
2018-09-19T07:21:42.893Z,7.93
2018-09-19T07:24:29.731Z,7.57
2018-09-19T07:27:16.235Z,7.03
2018-09-19T07:29:45.824Z,7.77
2018-09-19T07:32:14.224Z,7.10
2018-09-19T07:34:42.626Z,7.10
2018-09-19T07:37:11.316Z,6.97
2018-09-19T07:39:39.961Z,7.20
2018-09-19T07:42:08.390Z,7.10
2018-09-19T07:44:37.083Z,7.97
2018-09-19T07:47:05.811Z,8.30
2018-09-19T07:49:34.435Z,8.30
2018-09-19T07:52:03.122Z,7.80
2018-09-19T07:54:32.783Z,7.97
2018-09-19T07:57:01.418Z,7.73
2018-09-19T07:59:30.827Z,7.03
2018-09-19T08:02:05.031Z,7.97
2018-09-19T08:04:34.540Z,6.63
2018-09-19T08:07:03.298Z,7.80
2018-09-19T08:09:33.863Z,7.43
2018-09-19T08:12:08.601Z,6.70
2018-09-19T08:14:42.889Z,7.10
2018-09-19T08:17:18.992Z,6.33
2018-09-19T08:19:47.635Z,7.20
2018-09-19T08:22:22.140Z,7.07
2018-09-19T08:24:52.592Z,6.90
2018-09-19T08:27:22.262Z,6.90
2018-09-19T08:29:50.971Z,5.87
2018-09-19T08:32:19.575Z,6.47
2018-09-19T08:34:48.002Z,6.10
2018-09-19T08:37:16.779Z,5.87
2018-09-19T08:39:45.326Z,6.10
2018-09-19T08:42:14.936Z,5.90
2018-09-19T08:44:45.474Z,5.87
2018-09-19T08:47:13.812Z,6.07
2018-09-19T08:49:42.264Z,5.57
2018-09-19T08:52:10.951Z,5.10
2018-09-19T08:54:41.453Z,5.07
2018-09-19T08:57:11.054Z,5.50
2018-09-19T08:59:40.639Z,5.03
2018-09-19T09:02:12.385Z,5.57
2018-09-19T09:04:42.933Z,4.50
2018-09-19T09:07:12.595Z,4.80
2018-09-19T09:09:41.270Z,4.70
2018-09-19T09:12:15.578Z,5.53
2018-09-19T09:14:45.092Z,5.97
2018-09-19T09:17:19.584Z,4.53
2018-09-19T09:19:59.963Z,5.03
2018-09-19T09:22:35.087Z,4.50
2018-09-19T09:25:03.471Z,4.67
2018-09-19T09:27:33.997Z,4.70
2018-09-19T09:30:03.640Z,5.07
2018-09-19T09:32:32.305Z,4.83
2018-09-19T09:35:00.686Z,4.73
2018-09-19T09:37:31.212Z,4.13
2018-09-19T09:40:01.790Z,4.23
2018-09-19T09:42:31.364Z,4.60
2018-09-19T09:45:00.058Z,4.20
2018-09-19T09:47:34.871Z,4.17
2018-09-19T09:50:07.401Z,4.60
2018-09-19T09:52:41.465Z,4.73
2018-09-19T09:55:32.646Z,3.80
2018-09-19T09:58:09.098Z,4.60
2018-09-19T10:00:43.538Z,4.60
2018-09-19T10:03:16.461Z,4.50
2018-09-19T10:05:47.249Z,4.57
2018-09-19T10:08:15.684Z,4.17
2018-09-19T10:10:54.183Z,3.77
2018-09-19T10:13:26.567Z,4.80
2018-09-19T10:15:57.147Z,3.97
2018-09-19T10:18:26.771Z,4.33
2018-09-19T10:20:56.339Z,4.10
2018-09-19T10:23:25.094Z,3.80
2018-09-19T10:25:53.763Z,3.83
2018-09-19T10:28:22.387Z,3.87
2018-09-19T10:30:52.134Z,3.73
2018-09-19T10:33:20.839Z,3.63
2018-09-19T10:35:52.568Z,3.80
2018-09-19T10:38:26.730Z,3.70
2018-09-19T10:40:55.397Z,3.93
2018-09-19T10:43:24.155Z,4.13
2018-09-19T10:45:52.882Z,4.27
2018-09-19T10:48:21.524Z,4.27
2018-09-19T10:50:50.199Z,4.00
2018-09-19T10:53:20.712Z,4.20
2018-09-19T10:55:49.419Z,3.80
2018-09-19T10:58:18.031Z,3.70
2018-09-19T11:00:46.684Z,4.30
2018-09-19T11:03:15.264Z,4.00
2018-09-19T11:05:43.856Z,4.30
2018-09-19T11:08:13.362Z,3.90
2018-09-19T11:10:43.006Z,3.93
2018-09-19T11:13:12.593Z,4.17
2018-09-19T11:15:44.628Z,3.80
2018-09-19T11:18:13.328Z,4.00
2018-09-19T11:20:46.940Z,4.07
2018-09-19T11:23:15.625Z,3.80
2018-09-19T11:25:48.881Z,3.90
2018-09-19T11:28:22.809Z,3.90
2018-09-19T11:30:56.129Z,4.40
2018-09-19T11:33:25.686Z,3.90
2018-09-19T11:36:02.077Z,3.80
2018-09-19T11:38:30.435Z,4.00
2018-09-19T11:41:00.076Z,4.30
2018-09-19T11:43:29.674Z,3.90
2018-09-19T11:46:01.458Z,4.80
2018-09-19T11:48:41.847Z,4.10
2018-09-19T11:51:13.624Z,4.03
2018-09-19T11:53:42.320Z,4.40
2018-09-19T11:56:11.890Z,4.20
2018-09-19T11:58:40.550Z,4.00
2018-09-19T12:01:10.205Z,3.90
2018-09-19T12:03:40.729Z,4.37
2018-09-19T12:06:09.396Z,4.20
2018-09-19T12:08:38.035Z,3.80
2018-09-19T12:11:10.306Z,3.83
2018-09-19T12:13:42.080Z,3.87
2018-09-19T12:16:10.572Z,4.40
2018-09-19T12:18:41.116Z,4.17
2018-09-19T12:21:10.028Z,3.93
2018-09-19T12:23:39.730Z,3.57
2018-09-19T12:26:11.249Z,3.60
2018-09-19T12:28:40.796Z,3.60
2018-09-19T12:31:11.341Z,3.97
2018-09-19T12:33:39.984Z,3.80
2018-09-19T12:36:08.441Z,3.67
2018-09-19T12:38:37.174Z,3.80
2018-09-19T12:41:06.632Z,3.77
2018-09-19T12:43:35.379Z,4.20
2018-09-19T12:46:04.097Z,4.13
2018-09-19T12:48:42.299Z,3.50
2018-09-19T12:51:12.951Z,3.80
2018-09-19T12:53:42.427Z,4.10
2018-09-19T12:56:14.827Z,3.57
2018-09-19T12:58:43.820Z,4.37
2018-09-19T13:01:15.545Z,3.80
2018-09-19T13:03:44.341Z,3.87
2018-09-19T13:06:12.915Z,3.73
2018-09-19T13:08:41.670Z,3.60
2018-09-19T13:11:11.181Z,3.87
2018-09-19T13:13:39.572Z,4.23
2018-09-19T13:16:14.199Z,3.93
2018-09-19T13:18:43.775Z,4.00
2018-09-19T13:21:14.233Z,3.50
2018-09-19T13:23:59.199Z,3.80
2018-09-19T13:26:27.634Z,4.00
2018-09-19T13:28:59.940Z,3.90
2018-09-19T13:31:33.933Z,4.37
2018-09-19T13:34:16.093Z,4.13
2018-09-19T13:36:56.473Z,4.17
2018-09-19T13:39:26.268Z,3.60
2018-09-19T13:41:58.119Z,3.87
2018-09-19T13:44:28.774Z,3.83
2018-09-19T13:46:58.247Z,3.90
2018-09-19T13:49:34.495Z,3.87
2018-09-19T13:52:03.005Z,3.73
2018-09-19T13:54:38.738Z,4.23
2018-09-19T13:57:10.906Z,4.40
2018-09-19T13:59:45.514Z,4.17
2018-09-19T14:02:19.564Z,4.00
2018-09-19T14:05:02.658Z,4.03
2018-09-19T14:07:36.610Z,4.30
2018-09-19T14:10:05.448Z,4.00
2018-09-19T14:12:39.236Z,4.07
2018-09-19T14:15:08.940Z,3.40
2018-09-19T14:17:37.504Z,3.60
2018-09-19T14:20:07.136Z,4.40
2018-09-19T14:22:41.652Z,4.27
2018-09-19T14:25:22.553Z,4.37
2018-09-19T14:30:44.570Z,4.07
2018-09-19T14:33:13.201Z,3.60
2018-09-19T14:35:41.668Z,4.10
2018-09-19T14:38:11.988Z,4.10
2018-09-19T14:40:47.927Z,3.93
2018-09-19T14:43:23.322Z,4.53
2018-09-19T14:45:52.999Z,3.67
2018-09-19T14:48:25.439Z,3.80
2018-09-19T14:50:58.047Z,4.47
2018-09-19T14:53:30.226Z,3.93
2018-09-19T14:56:01.848Z,3.70
2018-09-19T14:58:30.602Z,4.00
2018-09-19T15:00:59.335Z,4.17
2018-09-19T15:03:35.973Z,3.73
2018-09-19T15:06:04.546Z,3.80
2018-09-19T15:08:34.204Z,4.00
2018-09-19T15:11:02.924Z,4.10
2018-09-19T15:13:31.624Z,3.67
2018-09-19T15:16:00.267Z,4.07
2018-09-19T15:18:28.948Z,4.00
2018-09-19T15:20:57.611Z,3.93
2018-09-19T15:23:27.544Z,3.93
2018-09-19T15:25:56.212Z,4.20
2018-09-19T15:28:25.878Z,3.90
2018-09-19T15:30:55.443Z,3.60
2018-09-19T15:33:28.718Z,4.00
2018-09-19T15:36:00.192Z,4.47
2018-09-19T15:38:38.452Z,3.87
2018-09-19T15:41:07.170Z,4.07
2018-09-19T15:43:39.762Z,3.57
2018-09-19T15:46:20.175Z,4.07
2018-09-19T15:49:07.300Z,3.83
2018-09-19T15:51:36.004Z,3.73
2018-09-19T15:54:04.754Z,4.10
2018-09-19T15:56:33.385Z,4.07
2018-09-19T15:59:02.960Z,3.83
2018-09-19T16:01:31.804Z,4.40
2018-09-19T16:04:00.444Z,4.50
2018-09-19T16:06:29.134Z,3.97
2018-09-19T16:08:57.819Z,3.80
2018-09-19T16:11:27.349Z,3.73
2018-09-19T16:13:59.448Z,3.60
2018-09-19T16:16:28.088Z,4.27
2018-09-19T16:18:56.721Z,3.60
2018-09-19T16:21:26.413Z,3.60
2018-09-19T16:23:55.016Z,4.03
2018-09-19T16:26:24.701Z,3.70
2018-09-19T16:28:55.152Z,4.17
2018-09-19T16:31:44.864Z,4.00
2018-09-19T16:34:14.179Z,3.60
2018-09-19T16:36:49.193Z,3.87
2018-09-19T16:39:18.877Z,4.33
2018-09-19T16:41:47.543Z,3.60
2018-09-19T16:44:31.551Z,3.63
2018-09-19T16:47:05.865Z,3.50
2018-09-19T16:49:34.422Z,3.10
2018-09-19T16:52:02.872Z,3.37
2018-09-19T16:54:34.595Z,3.47
2018-09-19T16:57:21.089Z,3.57
2018-09-19T16:59:49.850Z,3.50
2018-09-19T17:02:18.485Z,3.83
2018-09-19T17:04:47.191Z,3.50
2018-09-19T17:07:15.936Z,3.40
2018-09-19T17:09:50.153Z,3.30
2018-09-19T17:12:24.415Z,3.47
2018-09-19T17:14:54.805Z,3.90
2018-09-19T17:17:23.557Z,3.43
2018-09-19T17:19:52.439Z,3.90
2018-09-19T17:22:20.907Z,3.73
2018-09-19T17:24:53.286Z,3.60
2018-09-19T17:27:27.444Z,3.37
2018-09-19T17:30:00.797Z,3.80
2018-09-19T17:32:34.989Z,3.97
2018-09-19T17:35:16.844Z,4.10
2018-09-19T17:37:45.690Z,4.00
2018-09-19T17:40:24.181Z,3.90
2018-09-19T17:42:56.478Z,3.53
2018-09-19T17:45:32.556Z,4.00
2018-09-19T17:48:01.282Z,4.10
2018-09-19T17:50:46.154Z,3.80
2018-09-19T17:53:18.042Z,3.33
2018-09-19T17:55:46.676Z,3.50
2018-09-19T17:58:17.302Z,3.83
2018-09-19T18:00:51.116Z,3.83
2018-09-19T18:03:20.728Z,4.10
2018-09-19T18:05:49.517Z,3.93
2018-09-19T18:08:32.807Z,4.03
2018-09-19T18:11:02.512Z,3.70
2018-09-19T18:13:34.174Z,4.23
2018-09-19T18:16:03.858Z,4.07
2018-09-19T18:18:32.552Z,3.97
2018-09-19T18:21:06.718Z,4.23
2018-09-19T18:23:35.382Z,4.33
2018-09-19T18:26:05.013Z,3.97
2018-09-19T18:28:33.656Z,4.00
2018-09-19T18:31:02.407Z,4.03
2018-09-19T18:33:32.968Z,4.17
2018-09-19T18:36:02.561Z,3.77
2018-09-19T18:38:31.295Z,3.90
2018-09-19T18:40:59.973Z,3.93
2018-09-19T18:43:30.485Z,4.07
2018-09-19T18:46:00.960Z,3.97
2018-09-19T18:48:29.664Z,4.00
2018-09-19T18:51:00.237Z,4.87
2018-09-19T18:53:30.873Z,4.37
2018-09-19T18:56:01.513Z,4.37
2018-09-19T18:58:31.143Z,3.87
2018-09-19T19:01:05.210Z,4.10
2018-09-19T19:03:33.814Z,3.90
2018-09-19T19:06:03.407Z,4.00
2018-09-19T19:08:37.531Z,4.07
2018-09-19T19:11:07.200Z,3.97
2018-09-19T19:13:35.845Z,3.90
2018-09-19T19:16:05.469Z,4.63
2018-09-19T19:18:35.553Z,4.03
2018-09-19T19:21:04.986Z,4.10
2018-09-19T19:23:38.133Z,4.37
2018-09-19T19:26:07.589Z,4.10
2018-09-19T19:28:36.312Z,3.90
2018-09-19T19:31:04.999Z,4.17
2018-09-19T19:33:33.628Z,3.90
2018-09-19T19:36:03.304Z,4.50
2018-09-19T19:38:31.982Z,3.73
2018-09-19T19:41:01.531Z,4.33
2018-09-19T19:43:30.297Z,4.30
2018-09-19T19:46:02.489Z,4.30
2018-09-19T19:48:35.136Z,4.03
2018-09-19T19:51:04.683Z,4.20
2018-09-19T19:53:35.146Z,4.30
2018-09-19T19:56:05.799Z,4.63
2018-09-19T19:58:40.223Z,4.70
2018-09-19T20:01:08.845Z,4.60
2018-09-19T20:03:48.571Z,3.90
2018-09-19T20:06:25.233Z,4.97
2018-09-19T20:08:54.973Z,4.50
2018-09-19T20:11:24.591Z,4.70
2018-09-19T20:13:59.108Z,4.83
2018-09-19T20:16:30.855Z,4.87
2018-09-19T20:19:01.300Z,5.07
2018-09-19T20:21:33.378Z,4.80
2018-09-19T20:24:02.183Z,4.50
2018-09-19T20:26:46.747Z,4.10
2018-09-19T20:29:19.474Z,4.37
2018-09-19T20:31:48.216Z,4.60
2018-09-19T20:34:18.069Z,4.60
2018-09-19T20:36:54.674Z,4.67
2018-09-19T20:39:24.336Z,5.03
2018-09-19T20:41:53.089Z,4.20
2018-09-19T20:44:21.632Z,4.50
2018-09-19T20:46:51.398Z,4.47
2018-09-19T20:49:20.955Z,4.63
2018-09-19T20:51:49.582Z,4.27
2018-09-19T20:54:22.232Z,4.50
2018-09-19T20:56:51.926Z,4.53
2018-09-19T20:59:21.696Z,4.70
2018-09-19T21:01:51.378Z,4.90
2018-09-19T21:04:21.109Z,4.40
2018-09-19T21:06:51.612Z,4.10
2018-09-19T21:09:20.472Z,4.47
2018-09-19T21:11:56.336Z,4.30
2018-09-19T21:14:26.854Z,4.50
2018-09-19T21:16:55.608Z,4.30
2018-09-19T21:19:24.235Z,4.50
2018-09-19T21:21:52.990Z,4.90
2018-09-19T21:24:21.921Z,4.53
2018-09-19T21:26:50.385Z,3.90
2018-09-19T21:29:27.167Z,4.40
2018-09-19T21:32:03.841Z,4.83
2018-09-19T21:34:34.532Z,4.80
2018-09-19T21:37:13.249Z,4.90
2018-09-19T21:39:41.976Z,4.80
2018-09-19T21:42:12.514Z,4.57
2018-09-19T21:44:41.165Z,4.57
2018-09-19T21:47:11.681Z,4.37
2018-09-19T21:49:40.336Z,4.40
2018-09-19T21:52:09.938Z,4.70
2018-09-19T21:54:39.523Z,4.70
2018-09-19T21:57:10.199Z,4.37
2018-09-19T21:59:38.803Z,4.43
2018-09-19T22:02:08.439Z,4.70
2018-09-19T22:04:37.115Z,4.67
2018-09-19T22:07:06.660Z,4.57
2018-09-19T22:09:37.224Z,4.93
2018-09-19T22:12:09.456Z,4.13
2018-09-19T22:14:41.707Z,5.40
2018-09-19T22:17:13.716Z,4.90
2018-09-19T22:19:43.377Z,4.40
2018-09-19T22:22:12.102Z,4.17
2018-09-19T22:24:40.680Z,4.57
2018-09-19T22:27:21.357Z,4.30
2018-09-19T22:29:52.708Z,4.30
2018-09-19T22:32:22.198Z,4.70
2018-09-19T22:34:50.812Z,4.47
2018-09-19T22:37:19.506Z,4.60
2018-09-19T22:39:56.190Z,4.80
2018-09-19T22:42:25.769Z,4.23
2018-09-19T22:44:54.221Z,4.80
2018-09-19T22:47:24.730Z,4.40
2018-09-19T22:49:53.518Z,4.43
2018-09-19T22:52:22.166Z,4.60
2018-09-19T22:54:54.235Z,4.27
2018-09-19T22:57:39.717Z,4.50
2018-09-19T23:00:08.493Z,4.30
2018-09-19T23:02:38.105Z,4.50
2018-09-19T23:05:10.834Z,4.50
2018-09-19T23:07:39.433Z,4.13
2018-09-19T23:10:09.051Z,4.50
2018-09-19T23:12:41.777Z,4.67
2018-09-19T23:15:13.519Z,5.00
2018-09-19T23:17:43.987Z,4.40
2018-09-19T23:20:19.084Z,4.50
2018-09-19T23:22:49.593Z,4.67
2018-09-19T23:25:31.205Z,4.53
2018-09-19T23:28:07.259Z,4.57
2018-09-19T23:30:36.873Z,4.20
2018-09-19T23:33:10.270Z,4.33
2018-09-19T23:35:40.711Z,4.83
2018-09-19T23:38:10.431Z,4.37
2018-09-19T23:40:42.503Z,4.87
2018-09-19T23:43:23.441Z,4.53
2018-09-19T23:45:55.404Z,4.30
2018-09-19T23:48:27.228Z,4.17
2018-09-19T23:50:56.822Z,4.57
2018-09-19T23:53:25.539Z,4.70
2018-09-19T23:55:54.253Z,4.67
2018-09-19T23:58:22.958Z,4.17
